Fairview, Ireland

1:58 PM GMT on December 05, 2016 (GMT +0000)
Fairview Dublin | | Change Station

Elev 23 ft 53.36 °N, 6.24 °W | Updated 7 minutes ago

Mostly Cloudy
Mostly Cloudy
44.9 °F
Feels Like 45 °F
N
0.0
Wind Variable Wind from WSW
Gusts 0.0 mph

Today
High -- | Low -- °F
--% Chance of Precip.
Yesterday
High -- | Low -- °F
Precip. -- in
Pressure 30.15 in
Visibility 6.2 miles
Clouds Scattered Clouds 1400 ft
Mostly Cloudy 1700 ft
Windchill 45 °F
Dew Point 40 °F
Humidity 82%
Rainfall 0.00 in
Snow Depth Not available.
8:23 AM 4:07 PM
Waxing Crescent, 32% visible
METAR EIDW 051330Z 31003KT 9999 SCT014 BKN017 06/03 Q1021 NOSIG
Pressure 30.15 in
Visibility 6.2 miles
Clouds Scattered Clouds 1400 ft
Mostly Cloudy 1700 ft
Windchill 45 °F
Dew Point 40 °F
Humidity 82%
Rainfall 0.00 in
Snow Depth Not available.
8:23 AM 4:07 PM
Waxing Crescent, 32% visible
METAR EIDW 051330Z 31003KT 9999 SCT014 BKN017 06/03 Q1021 NOSIG

10-Day Weather Forecast

×

Almanac

Astronomy

Dec. 05, 2016 Rise Set
Actual Time
Civil Twilight
Nautical Twilight
Astronomical Twilight
Moon
Length of Visible Light
Length of Day
Tomorrow will be .
, % of the Moon is Illuminated

Today's Extremes

Country Highs Country Lows

Community

WunderPhotos

Upload Photos

1,955,780 photos uploaded!

WunderBlog® & News

Nearby

Air Quality

  Air Quality AQ Index Pollutant
Not available.

Snow Depth

Station Depth Elevation

Earthquake Activity

City Distance Mag. Time & Date
Minimum magnitude displayed is 2.5.

Coastal Water Temperatures

Place Temperature

Stations

Nearby Weather Stations

Station Location Temp. Windchill Dew Point Humidity Wind Precip. Elev Updated Type